Terminal Aerodrome Forecast
Issued by NWS

Home | Current Version | Previous Version | Text Only | Print | Product List | Glossary On
Versions: 1 2 3 4 5 6 7 8 9 10 11 12 13 14 15 16 17 18 19 20 21 22 23 24
000
FTUS43 KGRB 241700
TAFCWA
TAF
KCWA 241720Z 2418/2518 31012G20KT 1SM -SN SCT005 OVC009
      TEMPO 2418/2422 1/2SM SN OVC005
     FM242200 31012G20KT 1SM -SN OVC007
     FM250200 31011KT 3SM -SN OVC007
     FM250600 30008KT 6SM -SN OVC014
     FM251000 30007KT P6SM OVC018
     FM251500 28007KT P6SM BKN020 BKN100=

USA.gov is the U.S. government's official web portal to all federal, state and local government web resources and services.